Terminal Aerodrome Forecast
Issued by NWS

Home | Current Version | Previous Version | Graphics & Text | Print | Product List | Glossary On
Versions: 1 2 3 4 5 6 7 8 9 10 11 12 13 14 15 16 17 18 19
000
FTUS43 KMPX 061125 AAA
TAFRNH
TAF AMD
KRNH 061125Z 0611/0712 13011KT 4SM BR VCSH OVC007
     FM061500 13011KT 6SM BR SCT007 OVC015
     FM061800 14015G20KT P6SM SCT025 OVC040
     FM070000 15010KT P6SM -SHRA VCTS SCT025 OVC040CB
     FM070700 15010KT P6SM BKN040=

USA.gov is the U.S. government's official web portal to all federal, state and local government web resources and services.